sensor_id;sensor_type;location;lat;lon;timestamp;temperature;humidity
4759;DHT22;2393;50.560;12.636;2023-03-23T00:01:14;12.30;99.90
4759;DHT22;2393;50.560;12.636;2023-03-23T00:03:46;12.30;99.90
4759;DHT22;2393;50.560;12.636;2023-03-23T00:06:13;12.30;99.90
4759;DHT22;2393;50.560;12.636;2023-03-23T00:08:44;12.30;99.90
4759;DHT22;2393;50.560;12.636;2023-03-23T00:11:15;12.30;99.90
4759;DHT22;2393;50.560;12.636;2023-03-23T00:13:45;12.30;99.90
4759;DHT22;2393;50.560;12.636;2023-03-23T00:16:14;12.30;99.90
4759;DHT22;2393;50.560;12.636;2023-03-23T00:18:47;12.30;99.90
4759;DHT22;2393;50.560;12.636;2023-03-23T00:21:18;12.40;99.90
4759;DHT22;2393;50.560;12.636;2023-03-23T00:23:45;12.30;99.90
4759;DHT22;2393;50.560;12.636;2023-03-23T00:26:12;12.30;99.90
4759;DHT22;2393;50.560;12.636;2023-03-23T00:28:39;12.30;99.90
4759;DHT22;2393;50.560;12.636;2023-03-23T00:31:08;12.30;99.90
4759;DHT22;2393;50.560;12.636;2023-03-23T00:33:38;12.40;99.90
4759;DHT22;2393;50.560;12.636;2023-03-23T00:36:09;12.40;99.90
4759;DHT22;2393;50.560;12.636;2023-03-23T00:38:37;12.40;99.90
4759;DHT22;2393;50.560;12.636;2023-03-23T00:41:05;12.40;99.90
4759;DHT22;2393;50.560;12.636;2023-03-23T00:43:33;12.30;99.90
4759;DHT22;2393;50.560;12.636;2023-03-23T00:46:02;12.30;99.90
4759;DHT22;2393;50.560;12.636;2023-03-23T00:48:34;12.30;99.90
4759;DHT22;2393;50.560;12.636;2023-03-23T00:51:03;12.30;99.90
4759;DHT22;2393;50.560;12.636;2023-03-23T00:53:38;12.30;99.90
4759;DHT22;2393;50.560;12.636;2023-03-23T00:56:07;12.30;99.90
4759;DHT22;2393;50.560;12.636;2023-03-23T00:58:34;12.30;99.90
4759;DHT22;2393;50.560;12.636;2023-03-23T01:01:02;12.40;99.90
4759;DHT22;2393;50.560;12.636;2023-03-23T01:03:29;12.40;99.90
4759;DHT22;2393;50.560;12.636;2023-03-23T01:06:06;12.40;99.90
4759;DHT22;2393;50.560;12.636;2023-03-23T01:08:34;12.40;99.90
4759;DHT22;2393;50.560;12.636;2023-03-23T01:11:06;12.40;99.90
4759;DHT22;2393;50.560;12.636;2023-03-23T01:13:33;12.30;99.90
4759;DHT22;2393;50.560;12.636;2023-03-23T01:16:00;12.30;99.90
4759;DHT22;2393;50.560;12.636;2023-03-23T01:18:28;12.30;99.90
4759;DHT22;2393;50.560;12.636;2023-03-23T01:20:56;12.40;99.90
4759;DHT22;2393;50.560;12.636;2023-03-23T01:23:25;12.40;99.90
4759;DHT22;2393;50.560;12.636;2023-03-23T01:25:52;12.40;99.90
4759;DHT22;2393;50.560;12.636;2023-03-23T01:28:23;12.40;99.90
4759;DHT22;2393;50.560;12.636;2023-03-23T01:30:50;12.40;99.90
4759;DHT22;2393;50.560;12.636;2023-03-23T01:33:17;12.40;99.90
4759;DHT22;2393;50.560;12.636;2023-03-23T01:35:44;12.50;99.90
4759;DHT22;2393;50.560;12.636;2023-03-23T01:38:11;12.50;99.90
4759;DHT22;2393;50.560;12.636;2023-03-23T01:40:39;12.50;99.90
4759;DHT22;2393;50.560;12.636;2023-03-23T01:43:10;12.50;99.90
4759;DHT22;2393;50.560;12.636;2023-03-23T01:45:41;12.50;99.90
4759;DHT22;2393;50.560;12.636;2023-03-23T01:48:14;12.50;99.90
4759;DHT22;2393;50.560;12.636;2023-03-23T01:50:49;12.50;99.90
4759;DHT22;2393;50.560;12.636;2023-03-23T01:53:18;12.50;99.90
4759;DHT22;2393;50.560;12.636;2023-03-23T01:55:49;12.50;99.90
4759;DHT22;2393;50.560;12.636;2023-03-23T01:58:19;12.60;99.90
4759;DHT22;2393;50.560;12.636;2023-03-23T02:00:47;12.60;99.90
4759;DHT22;2393;50.560;12.636;2023-03-23T02:03:15;12.60;99.90
4759;DHT22;2393;50.560;12.636;2023-03-23T02:05:44;12.60;99.90
4759;DHT22;2393;50.560;12.636;2023-03-23T02:08:20;12.60;99.90
4759;DHT22;2393;50.560;12.636;2023-03-23T02:10:50;12.70;99.90
4759;DHT22;2393;50.560;12.636;2023-03-23T02:13:17;12.70;99.90
4759;DHT22;2393;50.560;12.636;2023-03-23T02:15:48;12.70;99.90
4759;DHT22;2393;50.560;12.636;2023-03-23T02:18:30;12.70;99.90
4759;DHT22;2393;50.560;12.636;2023-03-23T02:21:25;12.70;99.90
4759;DHT22;2393;50.560;12.636;2023-03-23T02:24:07;12.70;99.90
4759;DHT22;2393;50.560;12.636;2023-03-23T02:26:50;12.70;99.90
4759;DHT22;2393;50.560;12.636;2023-03-23T02:29:47;12.70;99.90
4759;DHT22;2393;50.560;12.636;2023-03-23T02:35:23;12.70;99.90
4759;DHT22;2393;50.560;12.636;2023-03-23T02:37:54;12.70;99.90
4759;DHT22;2393;50.560;12.636;2023-03-23T02:40:27;12.70;99.90
4759;DHT22;2393;50.560;12.636;2023-03-23T02:42:57;12.70;99.90
4759;DHT22;2393;50.560;12.636;2023-03-23T02:45:27;12.70;99.90
4759;DHT22;2393;50.560;12.636;2023-03-23T02:47:56;12.70;99.90
4759;DHT22;2393;50.560;12.636;2023-03-23T02:50:26;12.60;99.90
4759;DHT22;2393;50.560;12.636;2023-03-23T02:52:56;12.60;99.90
4759;DHT22;2393;50.560;12.636;2023-03-23T02:55:25;12.60;99.90
4759;DHT22;2393;50.560;12.636;2023-03-23T02:57:52;12.50;99.90
4759;DHT22;2393;50.560;12.636;2023-03-23T03:00:21;12.50;99.90
4759;DHT22;2393;50.560;12.636;2023-03-23T03:02:50;12.50;99.90
4759;DHT22;2393;50.560;12.636;2023-03-23T03:05:32;12.50;99.90
4759;DHT22;2393;50.560;12.636;2023-03-23T03:08:13;12.50;99.90
4759;DHT22;2393;50.560;12.636;2023-03-23T03:10:49;12.40;99.90
4759;DHT22;2393;50.560;12.636;2023-03-23T03:13:25;12.40;99.90
4759;DHT22;2393;50.560;12.636;2023-03-23T03:16:02;12.40;99.90
4759;DHT22;2393;50.560;12.636;2023-03-23T03:18:34;12.40;99.90
4759;DHT22;2393;50.560;12.636;2023-03-23T03:21:08;12.40;99.90
4759;DHT22;2393;50.560;12.636;2023-03-23T03:23:42;12.40;99.90
4759;DHT22;2393;50.560;12.636;2023-03-23T03:26:12;12.30;99.90
4759;DHT22;2393;50.560;12.636;2023-03-23T03:28:50;12.30;99.90
4759;DHT22;2393;50.560;12.636;2023-03-23T03:31:23;12.20;99.90
4759;DHT22;2393;50.560;12.636;2023-03-23T03:33:53;12.20;99.90
4759;DHT22;2393;50.560;12.636;2023-03-23T03:36:24;12.20;99.90
4759;DHT22;2393;50.560;12.636;2023-03-23T03:38:52;12.20;99.90
4759;DHT22;2393;50.560;12.636;2023-03-23T03:41:20;12.10;99.90
4759;DHT22;2393;50.560;12.636;2023-03-23T03:43:48;12.10;99.90
4759;DHT22;2393;50.560;12.636;2023-03-23T03:46:15;12.00;99.90
4759;DHT22;2393;50.560;12.636;2023-03-23T03:48:42;12.00;99.90
4759;DHT22;2393;50.560;12.636;2023-03-23T03:51:10;12.00;99.90
4759;DHT22;2393;50.560;12.636;2023-03-23T03:53:42;12.00;99.90
4759;DHT22;2393;50.560;12.636;2023-03-23T03:56:09;12.00;99.90
4759;DHT22;2393;50.560;12.636;2023-03-23T03:58:43;12.00;99.90
4759;DHT22;2393;50.560;12.636;2023-03-23T04:01:22;12.00;99.90
4759;DHT22;2393;50.560;12.636;2023-03-23T04:03:51;12.00;99.90
4759;DHT22;2393;50.560;12.636;2023-03-23T04:06:28;12.00;99.90
4759;DHT22;2393;50.560;12.636;2023-03-23T04:08:58;11.90;99.90
4759;DHT22;2393;50.560;12.636;2023-03-23T04:11:27;11.90;99.90
4759;DHT22;2393;50.560;12.636;2023-03-23T04:14:04;11.90;99.90
4759;DHT22;2393;50.560;12.636;2023-03-23T04:16:41;11.90;99.90
4759;DHT22;2393;50.560;12.636;2023-03-23T04:19:09;11.80;99.90
4759;DHT22;2393;50.560;12.636;2023-03-23T04:21:38;11.80;99.90
4759;DHT22;2393;50.560;12.636;2023-03-23T04:24:07;11.80;99.90
4759;DHT22;2393;50.560;12.636;2023-03-23T04:26:35;11.70;99.90
4759;DHT22;2393;50.560;12.636;2023-03-23T04:29:13;11.80;99.90
4759;DHT22;2393;50.560;12.636;2023-03-23T04:32:00;11.70;99.90
4759;DHT22;2393;50.560;12.636;2023-03-23T04:34:39;11.70;99.90
4759;DHT22;2393;50.560;12.636;2023-03-23T04:37:06;11.70;99.90
4759;DHT22;2393;50.560;12.636;2023-03-23T04:39:36;11.70;99.90
4759;DHT22;2393;50.560;12.636;2023-03-23T04:42:06;11.70;99.90
4759;DHT22;2393;50.560;12.636;2023-03-23T04:44:54;11.70;99.90
4759;DHT22;2393;50.560;12.636;2023-03-23T04:47:27;11.70;99.90
4759;DHT22;2393;50.560;12.636;2023-03-23T04:49:57;11.80;99.90
4759;DHT22;2393;50.560;12.636;2023-03-23T04:52:31;11.80;99.90
4759;DHT22;2393;50.560;12.636;2023-03-23T04:55:02;11.80;99.90
4759;DHT22;2393;50.560;12.636;2023-03-23T04:57:31;11.90;99.90
4759;DHT22;2393;50.560;12.636;2023-03-23T05:00:19;11.90;99.90
4759;DHT22;2393;50.560;12.636;2023-03-23T05:02:58;11.90;99.90
4759;DHT22;2393;50.560;12.636;2023-03-23T05:05:28;11.90;99.90
4759;DHT22;2393;50.560;12.636;2023-03-23T05:07:58;12.00;99.90
4759;DHT22;2393;50.560;12.636;2023-03-23T05:10:30;12.00;99.90
4759;DHT22;2393;50.560;12.636;2023-03-23T05:13:03;12.00;99.90
4759;DHT22;2393;50.560;12.636;2023-03-23T05:15:30;12.00;99.90
4759;DHT22;2393;50.560;12.636;2023-03-23T05:17:59;12.00;99.90
4759;DHT22;2393;50.560;12.636;2023-03-23T05:20:25;12.10;99.90
4759;DHT22;2393;50.560;12.636;2023-03-23T05:22:58;12.10;99.90
4759;DHT22;2393;50.560;12.636;2023-03-23T05:25:31;12.10;99.90
4759;DHT22;2393;50.560;12.636;2023-03-23T05:28:10;12.10;99.90
4759;DHT22;2393;50.560;12.636;2023-03-23T05:30:51;12.20;99.90
4759;DHT22;2393;50.560;12.636;2023-03-23T05:33:20;12.20;99.90
4759;DHT22;2393;50.560;12.636;2023-03-23T05:35:52;12.20;99.90
4759;DHT22;2393;50.560;12.636;2023-03-23T05:38:25;12.20;99.90
4759;DHT22;2393;50.560;12.636;2023-03-23T05:40:58;12.20;99.90
4759;DHT22;2393;50.560;12.636;2023-03-23T05:43:31;12.20;99.90
4759;DHT22;2393;50.560;12.636;2023-03-23T05:46:21;12.20;99.90
4759;DHT22;2393;50.560;12.636;2023-03-23T05:48:49;12.30;99.90
4759;DHT22;2393;50.560;12.636;2023-03-23T05:51:20;12.30;99.90
4759;DHT22;2393;50.560;12.636;2023-03-23T05:53:48;12.30;99.90
4759;DHT22;2393;50.560;12.636;2023-03-23T05:56:18;12.30;99.90
4759;DHT22;2393;50.560;12.636;2023-03-23T05:59:17;12.40;99.90
4759;DHT22;2393;50.560;12.636;2023-03-23T06:01:47;12.30;99.90
4759;DHT22;2393;50.560;12.636;2023-03-23T06:04:15;12.40;99.90
4759;DHT22;2393;50.560;12.636;2023-03-23T06:07:05;12.40;99.90
4759;DHT22;2393;50.560;12.636;2023-03-23T06:09:32;12.50;99.90
4759;DHT22;2393;50.560;12.636;2023-03-23T06:12:16;12.50;99.90
4759;DHT22;2393;50.560;12.636;2023-03-23T06:15:00;12.50;99.90
4759;DHT22;2393;50.560;12.636;2023-03-23T06:17:47;12.60;99.90
4759;DHT22;2393;50.560;12.636;2023-03-23T06:20:16;12.60;99.90
4759;DHT22;2393;50.560;12.636;2023-03-23T06:22:43;12.70;99.90
4759;DHT22;2393;50.560;12.636;2023-03-23T06:25:20;12.70;99.90
4759;DHT22;2393;50.560;12.636;2023-03-23T06:27:58;12.80;99.90
4759;DHT22;2393;50.560;12.636;2023-03-23T06:30:28;12.80;99.90
4759;DHT22;2393;50.560;12.636;2023-03-23T06:32:58;12.90;99.90
4759;DHT22;2393;50.560;12.636;2023-03-23T06:35:49;12.90;99.90
4759;DHT22;2393;50.560;12.636;2023-03-23T06:38:40;13.00;99.90
4759;DHT22;2393;50.560;12.636;2023-03-23T06:41:08;13.10;99.90
4759;DHT22;2393;50.560;12.636;2023-03-23T06:43:38;13.20;99.90
4759;DHT22;2393;50.560;12.636;2023-03-23T06:46:15;13.40;99.90
4759;DHT22;2393;50.560;12.636;2023-03-23T06:48:52;13.50;99.90
4759;DHT22;2393;50.560;12.636;2023-03-23T06:51:32;13.60;99.90
4759;DHT22;2393;50.560;12.636;2023-03-23T06:54:02;13.80;99.90
4759;DHT22;2393;50.560;12.636;2023-03-23T06:56:44;14.10;99.90
4759;DHT22;2393;50.560;12.636;2023-03-23T06:59:28;14.70;99.90
4759;DHT22;2393;50.560;12.636;2023-03-23T07:02:13;14.80;99.90
4759;DHT22;2393;50.560;12.636;2023-03-23T07:04:43;14.70;99.90
4759;DHT22;2393;50.560;12.636;2023-03-23T07:07:19;14.70;99.90
4759;DHT22;2393;50.560;12.636;2023-03-23T07:09:51;14.50;99.90
4759;DHT22;2393;50.560;12.636;2023-03-23T07:12:25;14.40;99.90
4759;DHT22;2393;50.560;12.636;2023-03-23T07:15:07;14.40;99.90
4759;DHT22;2393;50.560;12.636;2023-03-23T07:17:53;14.30;99.90
4759;DHT22;2393;50.560;12.636;2023-03-23T07:20:30;14.20;99.90
4759;DHT22;2393;50.560;12.636;2023-03-23T07:22:58;14.20;99.90
4759;DHT22;2393;50.560;12.636;2023-03-23T07:25:42;14.20;99.90
4759;DHT22;2393;50.560;12.636;2023-03-23T07:28:13;14.20;99.90
4759;DHT22;2393;50.560;12.636;2023-03-23T07:35:07;14.10;99.90
4759;DHT22;2393;50.560;12.636;2023-03-23T07:38:27;14.00;99.90
4759;DHT22;2393;50.560;12.636;2023-03-23T07:41:08;13.90;99.90
4759;DHT22;2393;50.560;12.636;2023-03-23T07:44:21;13.90;99.90
4759;DHT22;2393;50.560;12.636;2023-03-23T07:46:59;13.90;99.90
4759;DHT22;2393;50.560;12.636;2023-03-23T07:49:46;13.90;99.90
4759;DHT22;2393;50.560;12.636;2023-03-23T07:52:25;13.90;99.90
4759;DHT22;2393;50.560;12.636;2023-03-23T07:54:58;14.00;99.90
4759;DHT22;2393;50.560;12.636;2023-03-23T07:57:36;14.10;99.90
4759;DHT22;2393;50.560;12.636;2023-03-23T08:00:08;14.20;99.90
4759;DHT22;2393;50.560;12.636;2023-03-23T08:02:41;14.30;99.90
4759;DHT22;2393;50.560;12.636;2023-03-23T08:05:28;14.40;99.90
4759;DHT22;2393;50.560;12.636;2023-03-23T08:08:28;14.60;99.90
4759;DHT22;2393;50.560;12.636;2023-03-23T08:11:36;14.70;99.90
4759;DHT22;2393;50.560;12.636;2023-03-23T08:15:13;14.80;99.90
4759;DHT22;2393;50.560;12.636;2023-03-23T08:17:55;14.70;99.90
4759;DHT22;2393;50.560;12.636;2023-03-23T08:20:41;14.60;99.90
4759;DHT22;2393;50.560;12.636;2023-03-23T08:23:19;14.50;99.90
4759;DHT22;2393;50.560;12.636;2023-03-23T08:25:52;14.40;99.90
4759;DHT22;2393;50.560;12.636;2023-03-23T08:28:50;14.40;99.90
4759;DHT22;2393;50.560;12.636;2023-03-23T08:31:39;14.30;99.90
4759;DHT22;2393;50.560;12.636;2023-03-23T08:34:23;14.10;99.90
4759;DHT22;2393;50.560;12.636;2023-03-23T08:37:04;14.00;99.90
4759;DHT22;2393;50.560;12.636;2023-03-23T08:39:52;13.90;99.90
4759;DHT22;2393;50.560;12.636;2023-03-23T08:43:02;13.80;99.90
4759;DHT22;2393;50.560;12.636;2023-03-23T08:45:54;13.70;99.90
4759;DHT22;2393;50.560;12.636;2023-03-23T08:48:47;13.70;99.90
4759;DHT22;2393;50.560;12.636;2023-03-23T08:51:34;13.70;99.90
4759;DHT22;2393;50.560;12.636;2023-03-23T08:54:11;13.60;99.90
4759;DHT22;2393;50.560;12.636;2023-03-23T08:56:59;13.60;99.90
4759;DHT22;2393;50.560;12.636;2023-03-23T08:59:41;13.60;99.90
4759;DHT22;2393;50.560;12.636;2023-03-23T09:02:55;13.60;99.90
4759;DHT22;2393;50.560;12.636;2023-03-23T09:05:28;13.50;99.90
4759;DHT22;2393;50.560;12.636;2023-03-23T09:08:54;13.50;99.90
4759;DHT22;2393;50.560;12.636;2023-03-23T09:11:50;13.50;99.90
4759;DHT22;2393;50.560;12.636;2023-03-23T09:14:29;13.60;99.90
4759;DHT22;2393;50.560;12.636;2023-03-23T09:17:08;13.60;99.90
4759;DHT22;2393;50.560;12.636;2023-03-23T09:19:38;13.60;99.90
4759;DHT22;2393;50.560;12.636;2023-03-23T09:22:08;13.60;99.90
4759;DHT22;2393;50.560;12.636;2023-03-23T09:24:35;13.60;99.90
4759;DHT22;2393;50.560;12.636;2023-03-23T09:27:03;13.70;99.90
4759;DHT22;2393;50.560;12.636;2023-03-23T09:29:31;13.80;99.90
4759;DHT22;2393;50.560;12.636;2023-03-23T09:31:59;13.90;99.90
4759;DHT22;2393;50.560;12.636;2023-03-23T09:34:28;14.00;99.90
4759;DHT22;2393;50.560;12.636;2023-03-23T09:36:56;14.00;99.90
4759;DHT22;2393;50.560;12.636;2023-03-23T09:39:30;14.00;99.90
4759;DHT22;2393;50.560;12.636;2023-03-23T09:42:19;13.90;99.90
4759;DHT22;2393;50.560;12.636;2023-03-23T09:45:04;14.00;99.90
4759;DHT22;2393;50.560;12.636;2023-03-23T09:48:06;14.00;99.90
4759;DHT22;2393;50.560;12.636;2023-03-23T09:50:41;13.90;99.90
4759;DHT22;2393;50.560;12.636;2023-03-23T09:53:18;13.80;99.90
4759;DHT22;2393;50.560;12.636;2023-03-23T09:55:50;13.90;99.90
4759;DHT22;2393;50.560;12.636;2023-03-23T09:58:20;13.90;99.90
4759;DHT22;2393;50.560;12.636;2023-03-23T10:00:55;13.90;99.90
4759;DHT22;2393;50.560;12.636;2023-03-23T10:03:31;13.90;99.90
4759;DHT22;2393;50.560;12.636;2023-03-23T10:06:02;13.90;99.90
4759;DHT22;2393;50.560;12.636;2023-03-23T10:08:31;13.90;99.90
4759;DHT22;2393;50.560;12.636;2023-03-23T10:11:03;13.90;99.90
4759;DHT22;2393;50.560;12.636;2023-03-23T10:13:42;14.00;99.90
4759;DHT22;2393;50.560;12.636;2023-03-23T10:16:14;14.00;99.90
4759;DHT22;2393;50.560;12.636;2023-03-23T10:18:49;14.00;99.90
4759;DHT22;2393;50.560;12.636;2023-03-23T10:21:23;14.10;99.90
4759;DHT22;2393;50.560;12.636;2023-03-23T10:23:56;14.10;99.90
4759;DHT22;2393;50.560;12.636;2023-03-23T10:26:34;13.90;99.90
4759;DHT22;2393;50.560;12.636;2023-03-23T10:29:13;13.90;99.90
4759;DHT22;2393;50.560;12.636;2023-03-23T10:31:46;13.90;99.90
4759;DHT22;2393;50.560;12.636;2023-03-23T10:34:20;13.80;99.90
4759;DHT22;2393;50.560;12.636;2023-03-23T10:37:01;13.80;99.90
4759;DHT22;2393;50.560;12.636;2023-03-23T10:39:33;13.80;99.90
4759;DHT22;2393;50.560;12.636;2023-03-23T10:42:05;13.60;99.90
4759;DHT22;2393;50.560;12.636;2023-03-23T10:44:34;13.60;99.90
4759;DHT22;2393;50.560;12.636;2023-03-23T10:47:03;13.60;99.90
4759;DHT22;2393;50.560;12.636;2023-03-23T10:49:36;13.50;99.90
4759;DHT22;2393;50.560;12.636;2023-03-23T10:52:24;13.50;99.90
4759;DHT22;2393;50.560;12.636;2023-03-23T10:54:56;13.50;99.90
4759;DHT22;2393;50.560;12.636;2023-03-23T10:57:25;13.50;99.90
4759;DHT22;2393;50.560;12.636;2023-03-23T10:59:59;13.50;99.90
4759;DHT22;2393;50.560;12.636;2023-03-23T11:02:27;13.50;99.90
4759;DHT22;2393;50.560;12.636;2023-03-23T11:05:03;13.40;99.90
4759;DHT22;2393;50.560;12.636;2023-03-23T11:07:35;13.40;99.90
4759;DHT22;2393;50.560;12.636;2023-03-23T11:10:15;13.40;99.90
4759;DHT22;2393;50.560;12.636;2023-03-23T11:12:45;13.40;99.90
4759;DHT22;2393;50.560;12.636;2023-03-23T11:15:34;13.50;99.90
4759;DHT22;2393;50.560;12.636;2023-03-23T11:18:04;13.50;99.90
4759;DHT22;2393;50.560;12.636;2023-03-23T11:20:36;13.50;99.90
4759;DHT22;2393;50.560;12.636;2023-03-23T11:23:20;13.50;99.90
4759;DHT22;2393;50.560;12.636;2023-03-23T11:25:56;13.50;99.90
4759;DHT22;2393;50.560;12.636;2023-03-23T11:28:31;13.50;99.90
4759;DHT22;2393;50.560;12.636;2023-03-23T11:31:01;13.50;99.90
4759;DHT22;2393;50.560;12.636;2023-03-23T11:33:36;13.50;99.90
4759;DHT22;2393;50.560;12.636;2023-03-23T11:36:06;13.40;99.90
4759;DHT22;2393;50.560;12.636;2023-03-23T11:38:37;13.40;99.90
4759;DHT22;2393;50.560;12.636;2023-03-23T11:41:19;13.40;99.90
4759;DHT22;2393;50.560;12.636;2023-03-23T11:43:51;13.40;99.90
4759;DHT22;2393;50.560;12.636;2023-03-23T11:46:29;13.40;99.90
4759;DHT22;2393;50.560;12.636;2023-03-23T11:49:01;13.40;99.90
4759;DHT22;2393;50.560;12.636;2023-03-23T11:51:32;13.40;99.90
4759;DHT22;2393;50.560;12.636;2023-03-23T11:54:13;13.40;99.90
4759;DHT22;2393;50.560;12.636;2023-03-23T11:56:45;13.50;99.90
4759;DHT22;2393;50.560;12.636;2023-03-23T11:59:17;13.50;99.90
4759;DHT22;2393;50.560;12.636;2023-03-23T12:02:30;13.60;99.90
4759;DHT22;2393;50.560;12.636;2023-03-23T12:08:12;14.00;99.90
4759;DHT22;2393;50.560;12.636;2023-03-23T12:10:51;14.10;99.90
4759;DHT22;2393;50.560;12.636;2023-03-23T12:13:34;14.20;99.90
4759;DHT22;2393;50.560;12.636;2023-03-23T12:16:11;14.30;99.90
4759;DHT22;2393;50.560;12.636;2023-03-23T12:18:51;14.40;99.90
4759;DHT22;2393;50.560;12.636;2023-03-23T12:21:28;14.40;99.90
4759;DHT22;2393;50.560;12.636;2023-03-23T12:24:04;14.40;99.90
4759;DHT22;2393;50.560;12.636;2023-03-23T12:26:40;14.30;99.90
4759;DHT22;2393;50.560;12.636;2023-03-23T12:29:26;14.20;99.90
4759;DHT22;2393;50.560;12.636;2023-03-23T12:32:23;14.20;99.90
4759;DHT22;2393;50.560;12.636;2023-03-23T12:34:54;14.20;99.90
4759;DHT22;2393;50.560;12.636;2023-03-23T12:37:36;14.20;99.90
4759;DHT22;2393;50.560;12.636;2023-03-23T12:40:36;14.10;99.90
4759;DHT22;2393;50.560;12.636;2023-03-23T12:43:13;14.10;99.90
4759;DHT22;2393;50.560;12.636;2023-03-23T12:45:58;14.20;99.90
4759;DHT22;2393;50.560;12.636;2023-03-23T12:48:33;14.30;99.90
4759;DHT22;2393;50.560;12.636;2023-03-23T12:51:08;14.50;99.90
4759;DHT22;2393;50.560;12.636;2023-03-23T12:53:41;14.60;99.90
4759;DHT22;2393;50.560;12.636;2023-03-23T12:56:26;14.70;99.90
4759;DHT22;2393;50.560;12.636;2023-03-23T12:59:06;15.00;99.90
4759;DHT22;2393;50.560;12.636;2023-03-23T13:01:44;15.00;99.90
4759;DHT22;2393;50.560;12.636;2023-03-23T13:04:17;15.00;99.90
4759;DHT22;2393;50.560;12.636;2023-03-23T13:06:53;15.00;99.90
4759;DHT22;2393;50.560;12.636;2023-03-23T13:09:58;14.90;99.90
4759;DHT22;2393;50.560;12.636;2023-03-23T13:12:41;14.80;99.90
4759;DHT22;2393;50.560;12.636;2023-03-23T13:15:31;14.60;99.90
4759;DHT22;2393;50.560;12.636;2023-03-23T13:18:29;14.40;99.90
4759;DHT22;2393;50.560;12.636;2023-03-23T13:21:10;14.30;99.90
4759;DHT22;2393;50.560;12.636;2023-03-23T13:23:42;14.20;99.90
4759;DHT22;2393;50.560;12.636;2023-03-23T13:26:13;14.20;99.90
4759;DHT22;2393;50.560;12.636;2023-03-23T13:28:50;14.20;99.90
4759;DHT22;2393;50.560;12.636;2023-03-23T13:31:26;14.10;99.90
4759;DHT22;2393;50.560;12.636;2023-03-23T13:34:03;14.10;99.90
4759;DHT22;2393;50.560;12.636;2023-03-23T13:36:36;14.00;99.90
4759;DHT22;2393;50.560;12.636;2023-03-23T13:39:05;13.90;99.90
4759;DHT22;2393;50.560;12.636;2023-03-23T13:41:46;13.90;99.90
4759;DHT22;2393;50.560;12.636;2023-03-23T13:44:25;13.80;99.90
4759;DHT22;2393;50.560;12.636;2023-03-23T13:47:04;13.80;99.90
4759;DHT22;2393;50.560;12.636;2023-03-23T13:49:45;13.80;99.90
4759;DHT22;2393;50.560;12.636;2023-03-23T13:52:23;13.80;99.90
4759;DHT22;2393;50.560;12.636;2023-03-23T13:55:13;13.90;99.90
4759;DHT22;2393;50.560;12.636;2023-03-23T13:57:50;14.00;99.90
4759;DHT22;2393;50.560;12.636;2023-03-23T14:00:37;14.10;99.90
4759;DHT22;2393;50.560;12.636;2023-03-23T14:03:16;14.40;99.90
4759;DHT22;2393;50.560;12.636;2023-03-23T14:05:48;14.60;99.90
4759;DHT22;2393;50.560;12.636;2023-03-23T14:08:22;14.90;99.90
4759;DHT22;2393;50.560;12.636;2023-03-23T14:10:56;15.00;99.90
4759;DHT22;2393;50.560;12.636;2023-03-23T14:13:30;14.90;99.90
4759;DHT22;2393;50.560;12.636;2023-03-23T14:16:00;15.00;99.90
4759;DHT22;2393;50.560;12.636;2023-03-23T14:18:50;15.00;99.90
4759;DHT22;2393;50.560;12.636;2023-03-23T14:21:23;14.90;99.90
4759;DHT22;2393;50.560;12.636;2023-03-23T14:24:10;14.90;99.90
4759;DHT22;2393;50.560;12.636;2023-03-23T14:26:52;14.70;99.90
4759;DHT22;2393;50.560;12.636;2023-03-23T14:29:26;14.60;99.90
4759;DHT22;2393;50.560;12.636;2023-03-23T14:32:01;14.40;99.90
4759;DHT22;2393;50.560;12.636;2023-03-23T14:34:32;14.30;99.90
4759;DHT22;2393;50.560;12.636;2023-03-23T14:37:12;14.20;99.90
4759;DHT22;2393;50.560;12.636;2023-03-23T14:39:48;14.10;99.90
4759;DHT22;2393;50.560;12.636;2023-03-23T14:42:30;14.00;99.90
4759;DHT22;2393;50.560;12.636;2023-03-23T14:45:00;14.00;99.90
4759;DHT22;2393;50.560;12.636;2023-03-23T14:47:30;13.90;99.90
4759;DHT22;2393;50.560;12.636;2023-03-23T14:50:02;13.90;99.90
4759;DHT22;2393;50.560;12.636;2023-03-23T14:52:34;13.90;99.90
4759;DHT22;2393;50.560;12.636;2023-03-23T14:55:11;13.80;99.90
4759;DHT22;2393;50.560;12.636;2023-03-23T14:57:43;13.80;99.90
4759;DHT22;2393;50.560;12.636;2023-03-23T15:00:20;13.80;99.90
4759;DHT22;2393;50.560;12.636;2023-03-23T15:02:51;13.80;99.90
4759;DHT22;2393;50.560;12.636;2023-03-23T15:05:36;13.80;99.90
4759;DHT22;2393;50.560;12.636;2023-03-23T15:08:24;13.80;99.90
4759;DHT22;2393;50.560;12.636;2023-03-23T15:11:01;13.80;99.90
4759;DHT22;2393;50.560;12.636;2023-03-23T15:13:29;13.80;99.90
4759;DHT22;2393;50.560;12.636;2023-03-23T15:16:05;13.70;99.90
4759;DHT22;2393;50.560;12.636;2023-03-23T15:18:44;13.70;99.90
4759;DHT22;2393;50.560;12.636;2023-03-23T15:21:26;13.70;99.90
4759;DHT22;2393;50.560;12.636;2023-03-23T15:23:54;13.70;99.90
4759;DHT22;2393;50.560;12.636;2023-03-23T15:26:29;13.70;99.90
4759;DHT22;2393;50.560;12.636;2023-03-23T15:29:12;13.70;99.90
4759;DHT22;2393;50.560;12.636;2023-03-23T15:31:43;13.60;99.90
4759;DHT22;2393;50.560;12.636;2023-03-23T15:34:16;13.60;99.90
4759;DHT22;2393;50.560;12.636;2023-03-23T15:36:46;13.60;99.90
4759;DHT22;2393;50.560;12.636;2023-03-23T15:39:17;13.50;99.90
4759;DHT22;2393;50.560;12.636;2023-03-23T15:41:48;13.50;99.90
4759;DHT22;2393;50.560;12.636;2023-03-23T15:44:23;13.50;99.90
4759;DHT22;2393;50.560;12.636;2023-03-23T15:46:51;13.50;99.90
4759;DHT22;2393;50.560;12.636;2023-03-23T15:49:20;13.40;99.90
4759;DHT22;2393;50.560;12.636;2023-03-23T15:51:50;13.30;99.90
4759;DHT22;2393;50.560;12.636;2023-03-23T15:54:17;13.30;99.90
4759;DHT22;2393;50.560;12.636;2023-03-23T15:56:44;13.30;99.90
4759;DHT22;2393;50.560;12.636;2023-03-23T15:59:11;13.30;99.90
4759;DHT22;2393;50.560;12.636;2023-03-23T16:01:41;13.30;99.90
4759;DHT22;2393;50.560;12.636;2023-03-23T16:04:13;13.30;99.90
4759;DHT22;2393;50.560;12.636;2023-03-23T16:06:45;13.20;99.90
4759;DHT22;2393;50.560;12.636;2023-03-23T16:09:16;13.20;99.90
4759;DHT22;2393;50.560;12.636;2023-03-23T16:11:51;13.20;99.90
4759;DHT22;2393;50.560;12.636;2023-03-23T16:14:22;13.20;99.90
4759;DHT22;2393;50.560;12.636;2023-03-23T16:16:54;13.10;99.90
4759;DHT22;2393;50.560;12.636;2023-03-23T16:19:23;13.10;99.90
4759;DHT22;2393;50.560;12.636;2023-03-23T16:21:51;13.10;99.90
4759;DHT22;2393;50.560;12.636;2023-03-23T16:24:20;13.10;99.90
4759;DHT22;2393;50.560;12.636;2023-03-23T16:26:48;13.10;99.90
4759;DHT22;2393;50.560;12.636;2023-03-23T16:29:17;13.10;99.90
4759;DHT22;2393;50.560;12.636;2023-03-23T16:32:05;13.10;99.90
4759;DHT22;2393;50.560;12.636;2023-03-23T16:34:33;13.10;99.90
4759;DHT22;2393;50.560;12.636;2023-03-23T16:37:02;13.10;99.90
4759;DHT22;2393;50.560;12.636;2023-03-23T16:39:34;13.10;99.90
4759;DHT22;2393;50.560;12.636;2023-03-23T16:42:02;13.10;99.90
4759;DHT22;2393;50.560;12.636;2023-03-23T16:44:30;13.00;99.90
4759;DHT22;2393;50.560;12.636;2023-03-23T16:47:01;13.10;99.90
4759;DHT22;2393;50.560;12.636;2023-03-23T16:49:38;13.00;99.90